createdAt,value
2022-08-10T00:05:03.945Z,101544.91
2022-08-10T00:10:26.246Z,101534.94
2022-08-10T00:15:53.767Z,101544.22
2022-08-10T00:21:16.655Z,101538.06
2022-08-10T00:27:52.966Z,101546.13
2022-08-10T00:32:21.169Z,101538.84
2022-08-10T00:37:43.088Z,101538.97
2022-08-10T00:43:23.280Z,101541.75
2022-08-10T00:48:45.909Z,101543.00
2022-08-10T00:54:23.883Z,101535.53
2022-08-10T00:59:59.059Z,101545.19
2022-08-10T01:05:22.072Z,101545.66
2022-08-10T01:12:38.864Z,101548.44
2022-08-10T01:17:00.510Z,101541.28
2022-08-10T01:22:52.610Z,101550.16
2022-08-10T01:28:30.769Z,101554.91
2022-08-10T01:34:02.563Z,101552.84
2022-08-10T01:39:33.155Z,101553.56
2022-08-10T01:45:00.243Z,101550.03
2022-08-10T01:51:04.735Z,101557.06
2022-08-10T01:56:30.512Z,101555.19
2022-08-10T02:01:59.005Z,101554.09
2022-08-10T02:07:27.246Z,101558.50
2022-08-10T02:12:50.347Z,101558.56
2022-08-10T02:18:13.541Z,101562.66
2022-08-10T02:23:39.444Z,101558.81
2022-08-10T02:29:02.332Z,101567.53
2022-08-10T02:34:26.095Z,101565.09
2022-08-10T02:39:48.081Z,101566.78
2022-08-10T02:45:31.155Z,101568.63
2022-08-10T02:51:05.413Z,101570.53
2022-08-10T02:56:43.423Z,101573.31
2022-08-10T03:02:08.340Z,101576.06
2022-08-10T03:07:43.930Z,101576.22
2022-08-10T03:13:09.384Z,101578.91
2022-08-10T03:18:33.401Z,101580.56
2022-08-10T03:23:57.245Z,101573.84
2022-08-10T03:29:21.417Z,101579.38
2022-08-10T03:34:43.680Z,101576.25
2022-08-10T03:40:07.282Z,101575.69
2022-08-10T03:45:54.269Z,101587.97
2022-08-10T03:51:15.759Z,101587.28
2022-08-10T03:56:39.875Z,101585.75
2022-08-10T04:02:42.255Z,101597.19
2022-08-10T04:07:45.149Z,101581.22
2022-08-10T04:13:06.973Z,101577.31
2022-08-10T04:18:28.834Z,101585.44
2022-08-10T04:23:53.337Z,101592.38
2022-08-10T04:29:15.356Z,101592.09
2022-08-10T04:34:44.060Z,101592.00
2022-08-10T04:40:06.318Z,101606.22
2022-08-10T04:45:51.668Z,101602.19
2022-08-10T04:51:18.415Z,101600.31
2022-08-10T04:56:40.562Z,101603.03
2022-08-10T05:02:27.981Z,101612.69
2022-08-10T05:07:56.774Z,101608.31
2022-08-10T05:13:18.851Z,101613.19
2022-08-10T05:18:40.690Z,101611.16
2022-08-10T05:24:02.548Z,101610.25
2022-08-10T05:29:24.389Z,101620.75
2022-08-10T05:34:46.243Z,101623.34
2022-08-10T05:40:08.786Z,101631.47
2022-08-10T05:45:30.727Z,101628.84
2022-08-10T05:50:52.621Z,101621.97
2022-08-10T05:56:14.620Z,101621.19
2022-08-10T06:01:41.315Z,101623.56
2022-08-10T06:07:06.379Z,101624.16
2022-08-10T06:12:30.644Z,101631.00
2022-08-10T06:18:13.639Z,101626.03
2022-08-10T06:23:37.400Z,101620.47
2022-08-10T06:29:07.737Z,101628.09
2022-08-10T06:34:33.325Z,101625.94
2022-08-10T06:39:56.969Z,101638.97
2022-08-10T06:45:22.918Z,101634.19
2022-08-10T06:50:57.995Z,101625.25
2022-08-10T06:56:38.158Z,101619.16
2022-08-10T07:02:14.695Z,101607.72
2022-08-10T07:07:40.008Z,101614.50
2022-08-10T07:13:02.801Z,101619.34
2022-08-10T07:18:26.772Z,101614.44
2022-08-10T07:23:58.059Z,101622.00
2022-08-10T07:29:26.257Z,101620.31
2022-08-10T07:35:06.309Z,101608.13
2022-08-10T07:40:29.351Z,101616.91
2022-08-10T07:45:51.540Z,101614.31
2022-08-10T07:51:16.338Z,101621.75
2022-08-10T07:56:49.071Z,101624.78
2022-08-10T08:02:34.481Z,101620.63
2022-08-10T08:07:58.338Z,101617.56
2022-08-10T08:13:22.236Z,101619.41
2022-08-10T08:19:03.739Z,101623.13
2022-08-10T08:24:33.054Z,101605.19
2022-08-10T08:29:56.162Z,101594.56
2022-08-10T08:35:19.988Z,101605.63
2022-08-10T08:40:48.057Z,101591.19
2022-08-10T08:46:22.064Z,101597.63
2022-08-10T08:52:18.084Z,101596.72
2022-08-10T08:57:55.429Z,101592.22
2022-08-10T09:03:33.896Z,101586.00
2022-08-10T09:09:33.199Z,101584.34
2022-08-10T09:15:39.649Z,101586.13
2022-08-10T09:21:24.855Z,101593.13
2022-08-10T09:26:50.154Z,101579.72
2022-08-10T09:36:13.779Z,101581.66
2022-08-10T09:38:24.192Z,101579.00
2022-08-10T09:44:06.068Z,101587.06
2022-08-10T09:50:03.696Z,101573.84
2022-08-10T09:56:18.248Z,101567.69
2022-08-10T10:01:58.166Z,101570.03
2022-08-10T10:07:13.898Z,101551.53
2022-08-10T10:13:06.906Z,101563.97
2022-08-10T10:19:21.177Z,101545.25
2022-08-10T10:24:50.890Z,101552.56
2022-08-10T10:30:14.968Z,101558.50
2022-08-10T10:35:41.227Z,101553.22
2022-08-10T10:41:19.519Z,101550.94
2022-08-10T10:47:15.552Z,101536.50
2022-08-10T10:52:49.749Z,101529.50
2022-08-10T10:58:27.873Z,101528.97
2022-08-10T11:04:02.041Z,101511.09
2022-08-10T11:10:03.482Z,101502.84
2022-08-10T11:15:47.629Z,101502.84
2022-08-10T11:21:36.593Z,101507.44
2022-08-10T11:27:08.833Z,101490.06
2022-08-10T11:33:03.691Z,101485.47
2022-08-10T11:39:12.589Z,101484.16
2022-08-10T11:44:46.204Z,101520.16
2022-08-10T11:50:20.049Z,101498.13
2022-08-10T11:55:46.728Z,101489.63
2022-08-10T12:01:11.052Z,101482.41
2022-08-10T12:06:54.731Z,101472.88
2022-08-10T12:12:18.130Z,101471.84
2022-08-10T12:17:49.603Z,101445.69
2022-08-10T12:23:19.929Z,101461.72
2022-08-10T12:29:05.905Z,101464.88
2022-08-10T12:34:38.156Z,101469.59
2022-08-10T12:40:36.531Z,101436.03
2022-08-10T12:46:07.237Z,101450.00
2022-08-10T12:51:31.140Z,101444.75
2022-08-10T12:57:00.558Z,101438.41
2022-08-10T13:02:32.496Z,101434.66
2022-08-10T13:08:03.810Z,101417.00
2022-08-10T13:13:43.603Z,101415.91
2022-08-10T13:19:16.230Z,101415.31
2022-08-10T13:24:41.666Z,101417.66
2022-08-10T13:30:06.806Z,101422.56
2022-08-10T13:35:33.873Z,101426.66
2022-08-10T13:40:57.484Z,101423.19
2022-08-10T13:46:22.506Z,101418.50
2022-08-10T13:51:57.319Z,101406.03
2022-08-10T13:57:33.558Z,101396.28
2022-08-10T14:02:58.209Z,101400.19
2022-08-10T14:08:25.003Z,101402.03
2022-08-10T14:13:56.551Z,101406.47
2022-08-10T14:19:27.923Z,101410.78
2022-08-10T14:24:51.057Z,101410.94
2022-08-10T14:30:16.773Z,101418.84
2022-08-10T14:36:22.584Z,101400.44
2022-08-10T14:42:03.104Z,101399.72
2022-08-10T14:47:53.718Z,101395.66
2022-08-10T14:52:56.041Z,101392.25
2022-08-10T14:58:21.656Z,101402.22
2022-08-10T15:04:02.147Z,101387.97
2022-08-10T15:09:28.403Z,101393.22
2022-08-10T15:15:18.085Z,101385.00
2022-08-10T15:20:58.827Z,101385.56
2022-08-10T15:26:25.463Z,101370.91
2022-08-10T15:31:49.893Z,101378.72
2022-08-10T15:37:39.474Z,101365.50
2022-08-10T15:43:01.764Z,101371.19
2022-08-10T15:48:32.409Z,101356.66
2022-08-10T15:54:02.124Z,101369.72
2022-08-10T15:59:31.668Z,101362.34
2022-08-10T16:05:02.750Z,101360.28
2022-08-10T16:10:38.538Z,101358.31
2022-08-10T16:16:01.827Z,101367.09
2022-08-10T16:21:24.628Z,101356.19
2022-08-10T16:26:51.048Z,101350.69
2022-08-10T16:32:20.330Z,101357.53
2022-08-10T16:37:57.234Z,101355.97
2022-08-10T16:43:23.848Z,101352.81
2022-08-10T16:48:51.021Z,101363.59
2022-08-10T16:54:17.011Z,101351.97
2022-08-10T16:59:40.583Z,101347.53
2022-08-10T17:05:05.100Z,101352.94
2022-08-10T17:10:30.008Z,101356.84
2022-08-10T17:15:58.825Z,101350.84
2022-08-10T17:21:22.805Z,101365.81
2022-08-10T17:26:46.401Z,101362.78
2022-08-10T17:32:44.605Z,101357.34
2022-08-10T17:38:11.038Z,101363.06
2022-08-10T17:44:00.731Z,101355.44
2022-08-10T17:49:19.275Z,101362.69
2022-08-10T17:54:43.956Z,101356.88
2022-08-10T18:00:08.599Z,101362.50
2022-08-10T18:05:32.602Z,101369.53
2022-08-10T18:10:57.894Z,101382.34
2022-08-10T18:16:28.794Z,101386.34
2022-08-10T18:21:51.184Z,101395.28
2022-08-10T18:32:39.569Z,101391.72
2022-08-10T18:38:02.939Z,101386.41
2022-08-10T18:44:06.754Z,101391.47
2022-08-10T18:49:19.355Z,101396.34
2022-08-10T18:54:48.420Z,101401.28
2022-08-10T19:00:15.548Z,101404.81
2022-08-10T19:05:48.445Z,101414.53
2022-08-10T19:11:43.282Z,101418.09
2022-08-10T19:17:27.208Z,101421.41
2022-08-10T19:24:00.080Z,101423.91
2022-08-10T19:30:11.683Z,101420.03
2022-08-10T19:36:06.408Z,101426.38
2022-08-10T19:41:44.577Z,101419.34
2022-08-10T19:47:18.110Z,101423.25
2022-08-10T19:52:58.743Z,101429.13
2022-08-10T19:58:28.229Z,101423.16
2022-08-10T20:03:59.329Z,101418.38
2022-08-10T20:09:55.042Z,101423.09
2022-08-10T20:15:42.256Z,101430.59
2022-08-10T20:21:11.581Z,101419.41
2022-08-10T20:26:39.030Z,101410.63
2022-08-10T20:32:05.530Z,101411.31
2022-08-10T20:37:45.182Z,101422.91
2022-08-10T20:43:22.843Z,101419.38
2022-08-10T20:48:55.171Z,101418.44
2022-08-10T20:54:18.686Z,101411.06
2022-08-10T21:00:11.927Z,101414.66
2022-08-10T21:05:36.553Z,101416.72
2022-08-10T21:11:21.730Z,101408.13
2022-08-10T21:17:24.252Z,101409.28
2022-08-10T21:22:49.109Z,101415.03
2022-08-10T21:28:40.876Z,101414.56
2022-08-10T21:34:31.690Z,101420.16
2022-08-10T21:40:35.383Z,101416.03
2022-08-10T21:46:24.874Z,101411.06
2022-08-10T21:52:19.075Z,101417.94
2022-08-10T21:58:27.423Z,101420.16
2022-08-10T22:03:50.300Z,101409.00
2022-08-10T22:09:21.094Z,101413.63
2022-08-10T22:14:47.132Z,101418.59
2022-08-10T22:20:27.055Z,101422.50
2022-08-10T22:26:01.396Z,101405.75
2022-08-10T22:31:50.644Z,101411.63
2022-08-10T22:37:36.655Z,101407.56
2022-08-10T22:43:10.784Z,101404.47
2022-08-10T22:48:41.956Z,101394.25
2022-08-10T22:54:10.089Z,101384.53
2022-08-10T22:59:33.013Z,101391.19
2022-08-10T23:05:05.675Z,101400.06
2022-08-10T23:10:33.669Z,101390.03
2022-08-10T23:16:02.521Z,101381.84
2022-08-10T23:22:02.831Z,101386.03
2022-08-10T23:27:38.556Z,101392.81
2022-08-10T23:33:00.813Z,101401.25
2022-08-10T23:38:29.139Z,101397.97
2022-08-10T23:44:03.738Z,101399.63
2022-08-10T23:49:34.145Z,101376.41
2022-08-10T23:54:59.220Z,101384.25
